Time;durP1;ratioP1;P1;durP2;ratioP2;P2;SDS_P1;SDS_P2;PMS_P1;PMS_P2;Temp;Humidity;BMP_temperature;BMP_pressure;BME280_temperature;BME280_humidity;BME280_pressure;Samples;Min_cycle;Max_cycle;Signal;HPM_P1;HPM_P2
2021/04/20 00:02:16;;;;;;;14.50;9.23;;;;;;;7.81;100.00;101876.41;1883256;76;26711;-77
2021/04/20 00:04:46;;;;;;;19.00;9.67;;;;;;;7.85;100.00;101878.99;1883356;76;26163;-77
2021/04/20 00:07:16;;;;;;;15.47;9.07;;;;;;;7.68;100.00;101876.66;1883293;75;26261;-77
2021/04/20 00:09:46;;;;;;;13.43;8.80;;;;;;;7.69;100.00;101876.97;1883114;75;26227;-77
2021/04/20 00:12:16;;;;;;;15.07;9.40;;;;;;;7.79;100.00;101879.41;1883275;75;26179;-78
2021/04/20 00:14:46;;;;;;;16.37;8.37;;;;;;;7.76;100.00;101879.06;1883487;76;26172;-77
2021/04/20 00:17:16;;;;;;;15.30;8.57;;;;;;;7.64;100.00;101876.30;1883338;76;26199;-77
2021/04/20 00:19:46;;;;;;;15.30;9.53;;;;;;;7.50;100.00;101879.00;1883363;76;26187;-76
2021/04/20 00:22:15;;;;;;;14.63;9.20;;;;;;;7.54;100.00;101877.97;1883050;76;26237;-76
2021/04/20 00:24:45;;;;;;;15.80;8.60;;;;;;;7.58;100.00;101879.17;1882763;75;26167;-76
2021/04/20 00:27:15;;;;;;;14.03;8.90;;;;;;;7.45;100.00;101876.64;1882606;76;26200;-77
2021/04/20 00:29:45;;;;;;;14.90;9.03;;;;;;;7.44;100.00;101888.27;1882799;76;26698;-77
2021/04/20 00:32:15;;;;;;;14.83;9.00;;;;;;;7.79;100.00;101871.65;1883047;76;26203;-76
2021/04/20 00:34:45;;;;;;;15.63;9.03;;;;;;;7.90;100.00;101869.43;1883031;76;26186;-77
2021/04/20 00:37:14;;;;;;;16.13;9.13;;;;;;;8.02;100.00;101863.87;1883065;76;26174;-76
2021/04/20 00:39:44;;;;;;;15.57;8.73;;;;;;;7.80;100.00;101866.42;1883075;75;26183;-76
2021/04/20 00:42:14;;;;;;;16.80;8.93;;;;;;;7.62;100.00;101867.93;1883153;76;26708;-76
2021/04/20 00:44:44;;;;;;;15.37;9.27;;;;;;;7.45;100.00;101867.81;1882998;76;26204;-76
2021/04/20 00:47:14;;;;;;;13.00;9.00;;;;;;;7.43;100.00;101871.38;1883241;76;26175;-76
2021/04/20 00:49:44;;;;;;;16.50;9.60;;;;;;;7.46;100.00;101865.89;1883215;76;26264;-76
2021/04/20 00:52:13;;;;;;;14.83;9.27;;;;;;;7.55;100.00;101863.08;1883169;76;26182;-76
2021/04/20 00:54:43;;;;;;;14.40;8.90;;;;;;;7.54;100.00;101864.15;1883267;75;26251;-76
2021/04/20 00:57:13;;;;;;;14.63;8.93;;;;;;;7.57;100.00;101860.93;1883308;75;26171;-76
2021/04/20 00:59:43;;;;;;;14.77;9.63;;;;;;;7.52;100.00;101862.19;1883246;76;26225;-76
2021/04/20 01:02:14;;;;;;;17.47;9.73;;;;;;;7.76;100.00;101862.47;1883213;76;26218;-76
2021/04/20 01:04:44;;;;;;;15.97;9.23;;;;;;;7.61;100.00;101863.51;1883250;76;26200;-76
2021/04/20 01:07:14;;;;;;;14.37;9.03;;;;;;;7.38;100.00;101857.96;1883237;76;26670;-75
2021/04/20 01:09:46;;;;;;;17.57;9.50;;;;;;;7.20;100.00;101860.28;1882988;75;26230;-76
2021/04/20 01:12:17;;;;;;;14.70;9.10;;;;;;;6.98;100.00;101860.00;1882939;76;26300;-79
2021/04/20 01:14:48;;;;;;;10.57;7.57;;;;;;;6.82;100.00;101862.07;1883003;76;26662;-79
2021/04/20 01:17:19;;;;;;;13.30;8.77;;;;;;;6.59;100.00;101866.97;1883137;75;26268;-77
2021/04/20 01:19:50;;;;;;;16.00;9.47;;;;;;;6.24;100.00;101865.45;1882888;75;26374;-78
2021/04/20 01:22:21;;;;;;;11.30;8.60;;;;;;;6.07;100.00;101869.06;1882415;76;26208;-75
2021/04/20 01:24:52;;;;;;;11.90;8.23;;;;;;;6.14;100.00;101873.95;1883044;76;26186;-76
2021/04/20 01:27:23;;;;;;;11.13;8.00;;;;;;;6.58;100.00;101861.70;1883149;75;26222;-79
2021/04/20 01:29:56;;;;;;;12.57;7.77;;;;;;;6.67;100.00;101859.76;1883299;76;26265;-79
2021/04/20 01:32:27;;;;;;;11.23;7.77;;;;;;;6.42;100.00;101860.98;1883906;75;26699;-75
2021/04/20 01:34:58;;;;;;;16.50;8.83;;;;;;;6.50;100.00;101862.88;1883444;75;26211;-75
2021/04/20 01:37:28;;;;;;;14.37;8.57;;;;;;;6.52;100.00;101856.56;1883088;75;26214;-78
2021/04/20 01:39:58;;;;;;;15.50;9.80;;;;;;;6.56;100.00;101850.87;1882802;76;26196;-78
2021/04/20 01:42:28;;;;;;;17.40;8.93;;;;;;;6.72;100.00;101850.20;1883038;76;26606;-78
2021/04/20 01:44:58;;;;;;;14.10;9.10;;;;;;;6.68;100.00;101855.05;1883278;76;26182;-79
2021/04/20 01:47:28;;;;;;;12.33;8.80;;;;;;;6.63;100.00;101851.61;1884023;75;26227;-77
2021/04/20 01:50:00;;;;;;;14.23;8.30;;;;;;;6.88;100.00;101849.25;1882907;76;26330;-78
2021/04/20 01:52:30;;;;;;;14.60;9.10;;;;;;;6.67;100.00;101852.02;1883525;75;26288;-78
2021/04/20 01:55:00;;;;;;;12.93;7.97;;;;;;;6.45;100.00;101851.69;1883460;76;26755;-78
2021/04/20 01:57:32;;;;;;;10.67;7.33;;;;;;;6.32;100.00;101850.48;1883857;75;26280;-78
2021/04/20 02:00:04;;;;;;;11.73;7.70;;;;;;;6.10;100.00;101852.89;1884076;76;26281;-77
2021/04/20 02:02:35;;;;;;;13.73;8.70;;;;;;;6.21;100.00;101853.47;1883848;75;26327;-77
2021/04/20 02:05:08;;;;;;;12.97;8.53;;;;;;;6.39;100.00;101849.31;1883364;75;26215;-77
2021/04/20 02:07:39;;;;;;;13.33;8.60;;;;;;;6.39;100.00;101847.94;1883103;76;26256;-77
2021/04/20 02:10:11;;;;;;;12.00;8.50;;;;;;;6.32;100.00;101852.71;1882989;75;26273;-77
2021/04/20 02:12:41;;;;;;;13.53;8.90;;;;;;;6.29;100.00;101848.20;1882986;76;26207;-77
2021/04/20 02:15:16;;;;;;;14.10;8.40;;;;;;;6.35;100.00;101850.02;1883611;75;26182;-77
2021/04/20 02:17:48;;;;;;;14.03;9.30;;;;;;;6.49;100.00;101843.77;1884058;75;26602;-77
2021/04/20 02:20:18;;;;;;;15.50;8.87;;;;;;;6.49;100.00;101841.02;1884205;75;26183;-77
2021/04/20 02:22:50;;;;;;;13.43;9.00;;;;;;;6.49;100.00;101841.02;1884244;76;26601;-77
2021/04/20 02:25:20;;;;;;;12.47;8.83;;;;;;;6.37;100.00;101841.79;1884267;76;26248;-78
2021/04/20 02:27:51;;;;;;;11.90;8.90;;;;;;;6.22;100.00;101839.16;1883891;75;26215;-77
2021/04/20 02:30:21;;;;;;;11.20;7.77;;;;;;;6.04;100.00;101844.67;1883849;76;26724;-77
2021/04/20 02:32:51;;;;;;;12.13;7.60;;;;;;;5.88;100.00;101843.39;1884114;76;26190;-77
2021/04/20 02:35:21;;;;;;;13.47;8.50;;;;;;;5.73;100.00;101847.05;1884211;76;26176;-78
2021/04/20 02:37:53;;;;;;;14.27;9.00;;;;;;;5.73;100.00;101841.00;1884070;75;26194;-78
2021/04/20 02:40:25;;;;;;;13.07;9.00;;;;;;;5.82;100.00;101849.78;1883910;76;26179;-77
2021/04/20 02:42:56;;;;;;;14.90;8.97;;;;;;;5.87;100.00;101841.17;1883800;76;26171;-77
2021/04/20 02:45:28;;;;;;;11.43;7.97;;;;;;;5.83;100.00;101848.19;1883934;75;26236;-77
2021/04/20 02:47:58;;;;;;;13.67;9.07;;;;;;;5.93;100.00;101843.55;1884261;75;26591;-77
2021/04/20 02:50:30;;;;;;;14.73;10.17;;;;;;;5.90;100.00;101844.84;1884119;76;26187;-78
2021/04/20 02:53:01;;;;;;;15.83;9.67;;;;;;;5.89;100.00;101839.58;1884302;76;26265;-77
2021/04/20 02:55:31;;;;;;;15.57;10.90;;;;;;;6.18;100.00;101838.78;1884200;76;26625;-77
2021/04/20 02:58:03;;;;;;;17.17;11.33;;;;;;;6.22;100.00;101837.77;1884335;75;26187;-77
2021/04/20 03:00:34;;;;;;;17.10;10.47;;;;;;;6.21;100.00;101842.44;1883887;76;26200;-77
2021/04/20 03:03:06;;;;;;;20.73;10.43;;;;;;;6.21;100.00;101841.06;1883147;76;26194;-78
2021/04/20 03:05:36;;;;;;;13.23;9.00;;;;;;;6.19;100.00;101831.34;1883169;76;26215;-78
2021/04/20 03:08:07;;;;;;;17.10;9.87;;;;;;;6.22;100.00;101834.48;1882626;76;26171;-78
2021/04/20 03:10:39;;;;;;;15.23;10.03;;;;;;;6.19;100.00;101830.81;1882500;76;26280;-77
2021/04/20 03:13:10;;;;;;;15.60;9.70;;;;;;;6.05;100.00;101832.05;1884129;75;26174;-78
2021/04/20 03:15:41;;;;;;;13.87;8.60;;;;;;;5.90;100.00;101840.70;1884259;75;26302;-78
2021/04/20 03:18:12;;;;;;;14.53;9.67;;;;;;;5.88;100.00;101835.97;1884397;76;26254;-77
2021/04/20 03:20:41;;;;;;;13.80;10.10;;;;;;;5.93;100.00;101827.86;1884430;76;26179;-78
2021/04/20 03:23:11;;;;;;;15.20;9.67;;;;;;;5.87;100.00;101832.90;1884328;76;26246;-77
2021/04/20 03:25:42;;;;;;;10.33;8.27;;;;;;;5.63;100.00;101832.94;1884388;75;26186;-77
2021/04/20 03:28:12;;;;;;;12.63;9.23;;;;;;;5.57;100.00;101846.25;1884263;75;26686;-78
2021/04/20 03:30:42;;;;;;;11.67;9.37;;;;;;;5.40;100.00;101833.59;1884232;76;26752;-77
2021/04/20 03:33:16;;;;;;;13.27;9.57;;;;;;;5.36;100.00;101833.75;1883425;76;26187;-77
2021/04/20 03:36:07;;;;;;;14.33;9.50;;;;;;;5.38;100.00;101826.95;1830456;78;33188;-77
2021/04/20 03:38:40;;;;;;;14.57;9.60;;;;;;;5.41;100.00;101827.02;1830723;78;26710;-77
2021/04/20 03:41:14;;;;;;;14.60;9.47;;;;;;;5.42;100.00;101827.34;1830521;78;26709;-77
2021/04/20 03:43:47;;;;;;;12.47;8.83;;;;;;;5.39;100.00;101831.38;1830310;78;26204;-77
2021/04/20 03:46:20;;;;;;;10.13;8.00;;;;;;;5.34;100.00;101830.39;1830526;78;26651;-77
2021/04/20 03:48:53;;;;;;;12.83;8.67;;;;;;;5.33;100.00;101835.05;1829511;78;26375;-77
2021/04/20 03:51:26;;;;;;;11.93;7.97;;;;;;;5.42;100.00;101831.47;1830490;78;26657;-79
2021/04/20 03:54:03;;;;;;;11.33;8.23;;;;;;;5.43;100.00;101824.34;1830776;78;26208;-79
2021/04/20 03:56:32;;;;;;;13.10;9.17;;;;;;;5.44;100.00;101828.78;1830547;78;26270;-79
2021/04/20 03:59:05;;;;;;;15.50;10.33;;;;;;;5.60;100.00;101830.66;1830899;78;26201;-80
2021/04/20 04:01:39;;;;;;;16.97;9.10;;;;;;;5.73;100.00;101831.36;1799780;78;933652;-78
2021/04/20 04:04:11;;;;;;;12.33;8.50;;;;;;;5.73;100.00;101826.37;1799286;80;26243;-78
2021/04/20 04:06:43;;;;;;;12.33;8.47;;;;;;;5.86;100.00;101830.36;1810535;77;26177;-78
2021/04/20 04:09:15;;;;;;;11.87;8.30;;;;;;;5.68;100.00;101833.95;1850763;77;26213;-78
2021/04/20 04:11:49;;;;;;;12.90;8.60;;;;;;;5.77;100.00;101830.36;1850098;77;26353;-79
2021/04/20 04:14:22;;;;;;;12.83;8.47;;;;;;;5.76;100.00;101824.00;1850054;77;26193;-78
2021/04/20 04:16:58;;;;;;;13.80;8.63;;;;;;;5.68;100.00;101829.81;1850209;77;26208;-78
2021/04/20 04:19:29;;;;;;;11.73;8.20;;;;;;;5.56;100.00;101832.19;1850485;77;26192;-77
2021/04/20 04:22:03;;;;;;;13.57;8.97;;;;;;;5.39;100.00;101834.69;1850446;77;26659;-77
2021/04/20 04:24:38;;;;;;;12.63;8.40;;;;;;;5.34;100.00;101837.28;1850107;77;26274;-77
2021/04/20 04:27:10;;;;;;;12.80;8.30;;;;;;;5.37;100.00;101838.19;1850048;77;26212;-77
2021/04/20 04:29:42;;;;;;;12.97;9.20;;;;;;;5.35;100.00;101831.52;1850594;77;26193;-77
2021/04/20 04:32:14;;;;;;;12.10;8.27;;;;;;;5.28;100.00;101839.55;1850541;77;26270;-77
2021/04/20 04:34:46;;;;;;;12.43;8.60;;;;;;;5.34;100.00;101833.14;1850584;77;26196;-77
2021/04/20 04:37:17;;;;;;;13.47;8.37;;;;;;;5.32;100.00;101836.11;1850907;77;26235;-77
2021/04/20 04:39:48;;;;;;;16.17;9.60;;;;;;;5.30;100.00;101833.29;1851304;77;26271;-78
2021/04/20 04:42:18;;;;;;;12.97;9.43;;;;;;;5.53;100.00;101830.70;1851346;77;26188;-78
2021/04/20 04:44:49;;;;;;;12.47;8.50;;;;;;;5.42;100.00;101831.47;1851658;77;26184;-78
2021/04/20 04:47:19;;;;;;;9.77;6.33;;;;;;;5.26;100.00;101833.44;1851407;77;26204;-78
2021/04/20 04:49:50;;;;;;;9.20;6.53;;;;;;;5.00;100.00;101843.62;1851553;77;26212;-78
2021/04/20 04:52:21;;;;;;;9.70;6.30;;;;;;;4.98;100.00;101837.48;1851171;77;26208;-78
2021/04/20 04:54:51;;;;;;;8.00;5.50;;;;;;;4.94;100.00;101840.90;1850462;77;26645;-78
2021/04/20 04:57:23;;;;;;;7.43;5.20;;;;;;;4.92;100.00;101844.42;1849893;77;26702;-78
2021/04/20 04:59:54;;;;;;;8.30;6.10;;;;;;;4.91;100.00;101844.96;1851365;77;26196;-79
2021/04/20 05:02:25;;;;;;;6.67;5.07;;;;;;;4.98;100.00;101838.86;1851777;77;26729;-78
2021/04/20 05:04:56;;;;;;;7.03;5.37;;;;;;;5.02;100.00;101846.98;1851859;77;26190;-78
2021/04/20 05:07:26;;;;;;;6.27;5.37;;;;;;;5.00;100.00;101847.75;1852028;77;26232;-79
2021/04/20 05:10:00;;;;;;;7.13;5.37;;;;;;;4.91;100.00;101843.58;1851685;77;26309;-79
2021/04/20 05:12:33;;;;;;;9.70;6.70;;;;;;;4.89;100.00;101845.70;1850432;76;26810;-77
2021/04/20 05:15:09;;;;;;;10.47;6.93;;;;;;;4.90;100.00;101843.27;1850068;77;26644;-78
2021/04/20 05:17:40;;;;;;;12.43;8.07;;;;;;;4.93;100.00;101845.56;1849891;77;26295;-78
2021/04/20 05:20:13;;;;;;;11.80;7.70;;;;;;;5.01;100.00;101845.28;1849653;77;26711;-78
2021/04/20 05:22:44;;;;;;;12.57;8.20;;;;;;;5.12;100.00;101847.01;1850068;77;26270;-78
2021/04/20 05:25:18;;;;;;;10.27;7.10;;;;;;;4.95;100.00;101848.10;1850430;77;26741;-78
2021/04/20 05:27:50;;;;;;;10.30;6.77;;;;;;;4.96;100.00;101855.30;1851243;77;26200;-78
2021/04/20 05:30:22;;;;;;;9.87;7.17;;;;;;;5.01;100.00;101852.70;1851461;77;26200;-77
2021/04/20 05:32:53;;;;;;;11.73;7.10;;;;;;;4.98;100.00;101854.53;1850679;77;26643;-78
2021/04/20 05:35:24;;;;;;;8.67;6.83;;;;;;;5.16;100.00;101850.47;1849935;77;26228;-77
2021/04/20 05:37:54;;;;;;;9.90;7.33;;;;;;;5.22;100.00;101853.67;1849855;77;26208;-77
2021/04/20 05:40:26;;;;;;;11.90;8.03;;;;;;;5.18;100.00;101858.52;1849421;77;26200;-78
2021/04/20 05:42:57;;;;;;;10.77;6.97;;;;;;;5.29;100.00;101859.99;1849207;77;26732;-78
2021/04/20 05:45:27;;;;;;;12.63;7.50;;;;;;;5.38;100.00;101859.17;1849457;77;26282;-79
2021/04/20 05:47:57;;;;;;;10.77;8.27;;;;;;;5.70;100.00;101857.13;1851833;77;26270;-79
2021/04/20 05:50:32;;;;;;;10.17;7.70;;;;;;;5.91;100.00;101859.47;1851266;77;26200;-79
2021/04/20 05:53:02;;;;;;;13.17;8.70;;;;;;;5.83;100.00;101856.45;1851431;77;26204;-78
2021/04/20 05:55:32;;;;;;;15.53;9.07;;;;;;;5.92;100.00;101855.11;1851086;77;26209;-78
2021/04/20 05:58:02;;;;;;;15.57;8.73;;;;;;;5.80;100.00;101860.22;1849727;77;26212;-76
2021/04/20 06:00:33;;;;;;;13.13;9.17;;;;;;;5.82;100.00;101860.28;1849409;77;26271;-75
2021/04/20 06:03:03;;;;;;;13.17;8.57;;;;;;;5.87;100.00;101863.23;1849223;77;26342;-75
2021/04/20 06:05:34;;;;;;;13.87;9.67;;;;;;;5.93;100.00;101860.95;1849306;77;26244;-76
2021/04/20 06:08:06;;;;;;;15.33;9.70;;;;;;;6.11;100.00;101864.23;1850670;77;26212;-76
2021/04/20 06:10:37;;;;;;;18.73;10.43;;;;;;;6.42;100.00;101864.55;1850947;77;26212;-76
2021/04/20 06:13:08;;;;;;;16.60;10.50;;;;;;;6.59;100.00;101849.59;1850115;77;26244;-75
2021/04/20 06:15:39;;;;;;;14.47;10.40;;;;;;;6.64;100.00;101853.84;1849762;77;26196;-76
2021/04/20 06:18:10;;;;;;;16.63;11.33;;;;;;;6.93;100.00;101852.15;1849734;77;26330;-75
2021/04/20 06:20:40;;;;;;;15.90;10.60;;;;;;;7.00;100.00;101855.63;1849747;77;26209;-77
2021/04/20 06:23:10;;;;;;;14.97;10.00;;;;;;;7.15;100.00;101852.70;1850886;77;26274;-77
2021/04/20 06:25:41;;;;;;;16.33;10.53;;;;;;;7.18;100.00;101855.55;1850439;77;26211;-82
2021/04/20 06:28:13;;;;;;;14.20;10.13;;;;;;;7.23;100.00;101854.30;1849495;77;26620;-78
2021/04/20 06:30:43;;;;;;;16.53;10.30;;;;;;;7.23;100.00;101852.92;1849470;77;26204;-77
2021/04/20 06:33:13;;;;;;;15.83;10.47;;;;;;;7.44;100.00;101854.25;1849400;77;26318;-78
2021/04/20 06:35:43;;;;;;;15.30;10.87;;;;;;;7.33;100.00;101851.23;1849429;77;26254;-77
2021/04/20 06:38:15;;;;;;;16.73;10.67;;;;;;;7.43;100.00;101852.03;1849280;77;26698;-78
2021/04/20 06:40:48;;;;;;;16.03;10.90;;;;;;;7.47;100.00;101849.62;1849738;77;26664;-77
2021/04/20 06:43:20;;;;;;;14.83;11.10;;;;;;;7.56;100.00;101850.94;1849444;77;26686;-77
2021/04/20 06:45:54;;;;;;;18.60;11.47;;;;;;;7.69;100.00;101852.08;1849623;77;26212;-78
2021/04/20 06:48:35;;;;;;;17.43;12.00;;;;;;;7.71;100.00;101848.52;1849352;77;26204;-78
2021/04/20 06:51:06;;;;;;;22.97;12.43;;;;;;;7.79;100.00;101842.61;1849143;77;26198;-78
2021/04/20 06:53:39;;;;;;;22.30;14.40;;;;;;;7.86;100.00;101846.11;1849397;77;26208;-77
2021/04/20 06:56:20;;;;;;;23.77;14.77;;;;;;;7.99;100.00;101843.08;1849522;77;26648;-77
2021/04/20 06:58:54;;;;;;;23.93;16.07;;;;;;;8.06;100.00;101837.39;1849409;77;26636;-77
2021/04/20 07:01:28;;;;;;;22.00;14.67;;;;;;;8.14;100.00;101839.23;1849730;77;26204;-77
2021/04/20 07:04:09;;;;;;;26.50;15.23;;;;;;;8.15;100.00;101844.23;1849789;77;26365;-77
2021/04/20 07:06:45;;;;;;;27.30;15.70;;;;;;;8.04;100.00;101839.05;1850162;77;26652;-78
2021/04/20 07:09:21;;;;;;;29.57;17.17;;;;;;;8.28;100.00;101845.88;1850839;77;26306;-77
2021/04/20 07:11:53;;;;;;;25.20;16.70;;;;;;;8.24;100.00;101838.61;1850450;77;26202;-77
2021/04/20 07:14:31;;;;;;;28.13;16.97;;;;;;;8.55;100.00;101841.48;1849645;76;26702;-77
2021/04/20 07:17:05;;;;;;;27.90;17.10;;;;;;;8.53;100.00;101833.41;1849580;77;26236;-77
2021/04/20 07:20:11;;;;;;;27.73;17.93;;;;;;;8.80;100.00;101836.41;1849594;77;26216;-77
2021/04/20 07:23:19;;;;;;;28.63;16.27;;;;;;;8.92;100.00;101834.41;1824188;77;26216;-78
2021/04/20 07:25:56;;;;;;;35.57;19.10;;;;;;;9.02;100.00;101830.98;1841648;77;26225;-77
2021/04/20 07:28:31;;;;;;;29.20;20.00;;;;;;;9.26;100.00;101828.33;1849658;77;26204;-76
2021/04/20 07:31:09;;;;;;;31.73;20.50;;;;;;;9.46;100.00;101827.25;1849318;77;26233;-76
2021/04/20 07:34:03;;;;;;;33.83;20.67;;;;;;;9.56;100.00;101820.48;1849350;77;26281;-76
2021/04/20 07:36:39;;;;;;;31.40;21.47;;;;;;;9.60;100.00;101820.26;1850035;77;26620;-77
2021/04/20 07:39:12;;;;;;;31.23;21.77;;;;;;;9.83;100.00;101830.30;1850120;77;26235;-74
2021/04/20 07:41:47;;;;;;;38.53;21.40;;;;;;;10.02;100.00;101824.72;1849336;77;26185;-75
2021/04/20 07:44:22;;;;;;;33.17;21.23;;;;;;;10.05;100.00;101825.58;1849461;77;26196;-76
2021/04/20 07:46:55;;;;;;;35.23;22.37;;;;;;;10.04;100.00;101825.31;1849308;77;26647;-77
2021/04/20 07:49:29;;;;;;;29.23;21.67;;;;;;;10.19;100.00;101826.07;1849512;77;26276;-77
2021/04/20 07:52:04;;;;;;;30.60;21.40;;;;;;;10.49;100.00;101815.31;1849574;77;26683;-77
2021/04/20 07:54:41;;;;;;;32.50;21.27;;;;;;;10.71;100.00;101814.42;1849407;77;26267;-77
2021/04/20 07:57:24;;;;;;;35.93;22.30;;;;;;;10.95;100.00;101813.02;1849468;77;26196;-77
2021/04/20 08:00:04;;;;;;;30.53;21.97;;;;;;;11.19;100.00;101813.48;1849544;77;26262;-77
2021/04/20 08:02:37;;;;;;;28.90;21.40;;;;;;;11.26;100.00;101812.69;1849412;77;26232;-77
2021/04/20 08:05:13;;;;;;;29.93;22.10;;;;;;;11.24;100.00;101805.19;1849339;77;26267;-77
2021/04/20 08:07:49;;;;;;;30.77;23.50;;;;;;;11.45;100.00;101808.95;1849424;77;26279;-78
2021/04/20 08:10:21;;;;;;;31.37;23.37;;;;;;;11.38;100.00;101805.02;1849298;77;26746;-77
2021/04/20 08:12:54;;;;;;;33.67;22.50;;;;;;;11.85;100.00;101798.91;1849701;77;26642;-77
2021/04/20 08:15:38;;;;;;;35.20;23.80;;;;;;;12.01;100.00;101800.40;1849428;76;26326;-76
2021/04/20 08:18:13;;;;;;;37.53;24.40;;;;;;;11.81;100.00;101800.56;1849931;77;26627;-77
2021/04/20 08:20:46;;;;;;;30.73;22.17;;;;;;;11.90;100.00;101788.36;1849365;77;26770;-79
2021/04/20 08:23:18;;;;;;;33.07;23.20;;;;;;;12.19;100.00;101791.56;1849356;77;26188;-77
2021/04/20 08:25:54;;;;;;;32.87;23.73;;;;;;;12.69;100.00;101787.51;1849375;77;26640;-76
2021/04/20 08:28:27;;;;;;;34.93;23.13;;;;;;;12.55;100.00;101786.36;1849296;77;26208;-79
2021/04/20 08:31:03;;;;;;;32.67;22.73;;;;;;;12.83;100.00;101786.41;1849721;77;26222;-77
2021/04/20 08:33:36;;;;;;;34.20;22.07;;;;;;;12.73;100.00;101782.21;1849274;77;26204;-75
2021/04/20 08:36:10;;;;;;;33.90;21.63;;;;;;;12.82;100.00;101785.28;1849240;77;26685;-75
2021/04/20 08:38:52;;;;;;;29.03;20.37;;;;;;;13.03;100.00;101782.78;1849268;77;26196;-79
2021/04/20 08:41:27;;;;;;;29.50;20.10;;;;;;;13.31;100.00;101780.84;1849524;77;26201;-78
2021/04/20 08:44:11;;;;;;;30.80;20.77;;;;;;;13.26;100.00;101785.61;1849581;77;26213;-76
2021/04/20 08:46:48;;;;;;;30.23;21.20;;;;;;;13.19;100.00;101780.30;1849606;77;26213;-76
2021/04/20 08:49:21;;;;;;;28.87;21.47;;;;;;;13.36;100.00;101778.59;1849379;77;26708;-76
2021/04/20 08:51:55;;;;;;;27.47;21.60;;;;;;;13.54;100.00;101771.03;1849390;77;26209;-76
2021/04/20 08:54:43;;;;;;;31.80;23.97;;;;;;;13.52;100.00;101774.69;1849564;77;26204;-76
2021/04/20 08:57:19;;;;;;;35.10;24.03;;;;;;;13.97;100.00;101778.72;1849399;77;26648;-76
2021/04/20 09:00:11;;;;;;;32.63;23.67;;;;;;;13.92;100.00;101777.34;1849351;77;26248;-76
2021/04/20 09:03:06;;;;;;;36.60;23.00;;;;;;;13.93;100.00;101776.23;1849370;77;26718;-76
2021/04/20 09:05:44;;;;;;;32.03;22.73;;;;;;;14.27;100.00;101769.92;1849337;77;26285;-76
2021/04/20 09:08:36;;;;;;;32.03;22.73;;;;;;;14.45;100.00;101767.34;1849542;77;26632;-78
2021/04/20 09:11:15;;;;;;;26.20;21.03;;;;;;;14.34;100.00;101768.48;1849526;77;26254;-75
2021/04/20 09:13:50;;;;;;;30.60;20.87;;;;;;;14.18;100.00;101766.05;1849344;77;26286;-78
2021/04/20 09:16:24;;;;;;;29.87;20.63;;;;;;;14.43;100.00;101764.55;1851155;76;26220;-78
2021/04/20 09:18:54;;;;;;;30.43;20.90;;;;;;;14.56;100.00;101760.55;1851128;77;26211;-77
2021/04/20 09:21:27;;;;;;;26.37;20.70;;;;;;;14.65;100.00;101760.77;1851157;77;26282;-77
2021/04/20 09:24:10;;;;;;;30.67;21.57;;;;;;;14.41;100.00;101762.06;1851131;77;26313;-77
2021/04/20 09:26:44;;;;;;;32.00;20.77;;;;;;;14.54;100.00;101759.18;1851249;77;26205;-80
2021/04/20 09:29:17;;;;;;;28.77;19.83;;;;;;;14.56;100.00;101768.94;1851453;77;26179;-79
2021/04/20 09:31:54;;;;;;;29.13;20.13;;;;;;;14.69;100.00;101761.86;1851732;77;26270;-78
2021/04/20 09:34:27;;;;;;;29.00;20.17;;;;;;;14.79;100.00;101762.35;1850410;77;26204;-77
2021/04/20 09:36:59;;;;;;;27.40;19.80;;;;;;;14.77;100.00;101764.59;1850632;77;26274;-77
2021/04/20 09:39:31;;;;;;;30.43;22.13;;;;;;;15.01;100.00;101761.34;1851054;77;26235;-78
2021/04/20 09:42:03;;;;;;;27.67;19.77;;;;;;;14.97;100.00;101763.06;1851205;77;26228;-78
2021/04/20 09:44:46;;;;;;;31.40;20.90;;;;;;;15.11;100.00;101767.39;1850261;77;26743;-79
2021/04/20 09:47:42;;;;;;;31.83;20.03;;;;;;;15.26;100.00;101765.31;1851100;77;26228;-78
2021/04/20 09:50:18;;;;;;;25.10;19.80;;;;;;;15.35;100.00;101764.95;1851269;77;26229;-78
2021/04/20 09:52:55;;;;;;;31.07;19.90;;;;;;;15.30;100.00;101752.95;1851213;77;26211;-78
2021/04/20 09:55:30;;;;;;;26.60;20.60;;;;;;;15.52;100.00;101753.31;1851601;77;26282;-78
2021/04/20 09:58:01;;;;;;;27.47;18.53;;;;;;;15.11;100.00;101761.80;1851652;77;26263;-78
2021/04/20 10:00:32;;;;;;;25.63;18.47;;;;;;;15.31;100.00;101756.03;1850695;77;26223;-79
2021/04/20 10:03:10;;;;;;;22.23;18.03;;;;;;;15.56;100.00;101753.00;1852136;77;26216;-79
2021/04/20 10:05:52;;;;;;;26.40;19.43;;;;;;;15.61;100.00;101752.94;1851603;77;26370;-79
2021/04/20 10:08:33;;;;;;;23.33;17.57;;;;;;;15.45;100.00;101752.22;1852074;77;26176;-79
2021/04/20 10:11:06;;;;;;;25.20;18.80;;;;;;;15.77;100.00;101750.79;1851622;77;26208;-78
2021/04/20 10:13:51;;;;;;;25.50;19.27;;;;;;;15.52;100.00;101756.68;1850844;77;26310;-79
2021/04/20 10:16:24;;;;;;;25.07;19.73;;;;;;;15.61;100.00;101751.55;1851271;76;26259;-79
2021/04/20 10:19:06;;;;;;;28.97;20.73;;;;;;;15.41;100.00;101752.55;1851416;77;26236;-78
2021/04/20 10:21:39;;;;;;;25.83;18.47;;;;;;;15.68;100.00;101752.58;1852124;77;26225;-78
2021/04/20 10:24:13;;;;;;;24.67;18.70;;;;;;;15.89;100.00;101752.60;1852097;77;26237;-78
2021/04/20 10:26:47;;;;;;;23.30;18.50;;;;;;;15.56;100.00;101745.16;1851608;77;26350;-79
2021/04/20 10:29:21;;;;;;;23.77;17.93;;;;;;;15.33;100.00;101748.16;1851433;77;26204;-78
2021/04/20 10:31:57;;;;;;;26.30;17.73;;;;;;;15.32;100.00;101751.52;1849819;77;26777;-79
2021/04/20 10:34:28;;;;;;;23.83;17.20;;;;;;;15.77;100.00;101740.98;1849499;77;26200;-77
2021/04/20 10:36:59;;;;;;;20.80;16.13;;;;;;;15.85;100.00;101745.36;1849743;77;26604;-79
2021/04/20 10:39:31;;;;;;;20.03;15.93;;;;;;;15.94;100.00;101745.54;1849950;77;26301;-79
2021/04/20 10:42:01;;;;;;;22.33;15.43;;;;;;;15.79;100.00;101742.34;1850520;77;26212;-79
2021/04/20 10:44:32;;;;;;;20.37;15.13;;;;;;;15.78;100.00;101743.50;1849576;77;26204;-79
2021/04/20 10:47:03;;;;;;;18.10;14.83;;;;;;;15.90;100.00;101736.06;1849363;77;26293;-78
2021/04/20 10:49:36;;;;;;;16.17;13.07;;;;;;;16.10;100.00;101734.95;1849500;77;26302;-78
2021/04/20 10:52:14;;;;;;;18.03;14.23;;;;;;;16.06;100.00;101736.69;1849553;77;26204;-78
2021/04/20 10:54:45;;;;;;;18.60;13.03;;;;;;;15.87;100.00;101730.47;1849394;77;26212;-78
2021/04/20 10:57:16;;;;;;;14.50;11.70;;;;;;;15.96;100.00;101734.84;1849419;77;26252;-78
2021/04/20 10:59:53;;;;;;;14.70;12.00;;;;;;;16.28;100.00;101729.94;1849361;77;26287;-78
2021/04/20 11:02:26;;;;;;;14.87;12.70;;;;;;;16.19;100.00;101726.14;1849248;77;26233;-79
2021/04/20 11:04:58;;;;;;;18.90;14.43;;;;;;;16.17;100.00;101719.42;1849336;77;26208;-77
2021/04/20 11:07:32;;;;;;;17.50;12.80;;;;;;;16.08;100.00;101715.66;1849536;77;26201;-77
2021/04/20 11:10:04;;;;;;;14.80;13.17;;;;;;;16.30;100.00;101719.27;1849611;77;26196;-79
2021/04/20 11:12:36;;;;;;;15.83;12.80;;;;;;;16.21;100.00;101721.08;1850099;77;26327;-79
2021/04/20 11:15:10;;;;;;;17.27;13.13;;;;;;;16.31;100.00;101707.73;1849742;77;26209;-78
2021/04/20 11:17:48;;;;;;;18.57;13.33;;;;;;;16.66;100.00;101709.20;1849610;77;26303;-78
2021/04/20 11:20:21;;;;;;;15.20;12.73;;;;;;;16.27;100.00;101708.64;1849551;77;26663;-78
2021/04/20 11:22:54;;;;;;;14.50;12.20;;;;;;;16.27;100.00;101709.48;1849606;77;26737;-78
2021/04/20 11:25:27;;;;;;;15.10;10.37;;;;;;;16.36;100.00;101704.02;1849588;77;26201;-78
2021/04/20 11:28:00;;;;;;;12.17;9.83;;;;;;;16.55;100.00;101701.22;1850076;77;26652;-78
2021/04/20 11:30:34;;;;;;;13.00;10.50;;;;;;;16.49;100.00;101702.42;1849739;77;26751;-77
2021/04/20 11:33:07;;;;;;;15.10;11.40;;;;;;;16.69;100.00;101695.95;1849652;77;26612;-78
2021/04/20 11:35:42;;;;;;;16.70;12.27;;;;;;;16.69;100.00;101695.11;1849856;77;26294;-77
2021/04/20 11:38:15;;;;;;;14.57;11.77;;;;;;;16.56;100.00;101696.69;1849357;77;26266;-77
2021/04/20 11:40:51;;;;;;;14.67;11.13;;;;;;;16.69;100.00;101697.35;1849246;77;26245;-78